TimeEST,TemperatureF,Dew PointF,Humidity,Sea Level PressureIn,VisibilityMPH,Wind Direction,Wind SpeedMPH,Gust SpeedMPH,PrecipitationIn,Events,Conditions,WindDirDegrees,DateUTC
12:54 AM,30.9,26.1,82,30.03,10.0,NNW,8.1,-,N/A,,Overcast,330,2013-03-01 05:54:00
1:54 AM,30.9,25.0,79,30.03,10.0,NNW,10.4,-,N/A,,Overcast,340,2013-03-01 06:54:00
2:54 AM,30.0,25.0,82,30.01,10.0,NNW,9.2,-,N/A,,Overcast,340,2013-03-01 07:54:00
3:54 AM,30.0,25.0,82,30.01,10.0,North,10.4,-,N/A,,Overcast,350,2013-03-01 08:54:00
4:28 AM,28.4,24.8,86,29.99,10.0,NNW,11.5,-,N/A,,Overcast,330,2013-03-01 09:28:00
4:54 AM,28.9,25.0,85,30.01,10.0,North,10.4,-,N/A,,Overcast,350,2013-03-01 09:54:00
5:54 AM,28.9,25.0,85,30.03,10.0,NNW,10.4,-,N/A,,Overcast,340,2013-03-01 10:54:00
6:33 AM,28.4,24.8,86,30.01,9.0,NNW,9.2,17.3,N/A,,Overcast,340,2013-03-01 11:33:00
6:54 AM,28.0,25.0,88,30.03,8.0,NNW,11.5,-,N/A,,Overcast,340,2013-03-01 11:54:00
8:54 AM,28.0,26.1,92,30.06,1.5,North,8.1,-,N/A,,Overcast,350,2013-03-01 13:54:00
9:54 AM,28.9,27.0,92,30.05,1.5,North,6.9,-,N/A,,Overcast,360,2013-03-01 14:54:00
11:01 AM,30.2,28.4,93,30.04,7.0,North,8.1,-,N/A,,Overcast,10,2013-03-01 16:01:00
11:54 AM,30.9,28.0,89,30.07,7.0,NNE,9.2,-,N/A,,Overcast,30,2013-03-01 16:54:00
12:03 PM,30.2,28.4,93,30.05,6.0,NE,8.1,-,N/A,,Overcast,40,2013-03-01 17:03:00
12:14 PM,30.2,28.4,93,30.05,5.0,NNE,9.2,-,N/A,,Overcast,30,2013-03-01 17:14:00
12:54 PM,32.0,28.0,85,30.07,10.0,NE,9.2,-,N/A,,Overcast,40,2013-03-01 17:54:00
1:01 PM,32.0,28.4,87,30.05,10.0,NNE,10.4,-,N/A,,Overcast,30,2013-03-01 18:01:00
2:08 PM,33.8,26.6,75,30.04,10.0,NNE,10.4,-,N/A,,Overcast,20,2013-03-01 19:08:00
2:54 PM,33.1,26.1,75,30.06,10.0,NNE,9.2,-,N/A,,Overcast,20,2013-03-01 19:54:00
3:54 PM,33.1,26.1,75,30.06,10.0,North,6.9,-,N/A,,Overcast,360,2013-03-01 20:54:00
4:11 PM,33.8,24.8,70,30.05,10.0,NNE,5.8,-,N/A,,Overcast,20,2013-03-01 21:11:00
4:54 PM,32.0,25.0,75,30.07,10.0,North,5.8,-,N/A,,Overcast,10,2013-03-01 21:54:00
5:54 PM,32.0,25.0,75,30.08,10.0,NNE,4.6,-,N/A,,Overcast,20,2013-03-01 22:54:00
6:54 PM,32.0,26.1,79,30.10,10.0,NNE,8.1,-,N/A,,Overcast,20,2013-03-01 23:54:00
7:28 PM,30.2,24.8,80,30.09,10.0,North,11.5,-,N/A,,Overcast,10,2013-03-02 00:28:00
7:54 PM,30.0,24.1,79,30.12,10.0,North,11.5,-,N/A,,Overcast,360,2013-03-02 00:54:00
9:46 PM,28.4,23.0,80,30.11,10.0,North,9.2,-,N/A,,Overcast,10,2013-03-02 02:46:00
9:54 PM,28.9,23.0,78,30.13,10.0,North,11.5,-,N/A,,Overcast,10,2013-03-02 02:54:00
10:54 PM,28.0,21.9,78,30.14,10.0,NNE,13.8,-,N/A,,Overcast,20,2013-03-02 03:54:00
11:08 PM,28.4,21.2,74,30.11,10.0,North,12.7,-,N/A,,Overcast,10,2013-03-02 04:08:00
11:54 PM,28.0,21.0,75,30.12,10.0,North,9.2,-,N/A,,Overcast,10,2013-03-02 04:54:00